createdAt,value
2022-09-18T00:00:14.372Z,8.39
2022-09-18T00:02:40.869Z,8.39
2022-09-18T00:05:07.704Z,8.42
2022-09-18T00:07:34.050Z,8.44
2022-09-18T00:10:00.431Z,8.44
2022-09-18T00:12:26.912Z,8.46
2022-09-18T00:14:53.432Z,8.44
2022-09-18T00:17:19.770Z,8.44
2022-09-18T00:19:46.233Z,8.45
2022-09-18T00:22:12.581Z,8.45
2022-09-18T00:24:38.982Z,8.46
2022-09-18T00:27:05.400Z,8.46
2022-09-18T00:29:31.752Z,8.48
2022-09-18T00:31:59.782Z,8.49
2022-09-18T00:34:26.176Z,8.50
2022-09-18T00:36:52.533Z,8.49
2022-09-18T00:39:18.950Z,8.50
2022-09-18T00:41:45.423Z,8.51
2022-09-18T00:44:30.800Z,8.51
2022-09-18T00:47:29.328Z,8.53
2022-09-18T00:50:04.952Z,8.50
2022-09-18T00:52:39.762Z,8.48
2022-09-18T00:55:09.629Z,8.49
2022-09-18T00:57:41.156Z,8.49
2022-09-18T01:00:14.768Z,8.49
2022-09-18T01:02:43.046Z,8.51
2022-09-18T01:05:11.155Z,8.52
2022-09-18T01:08:13.778Z,8.51
2022-09-18T01:10:55.876Z,8.49
2022-09-18T01:13:38.092Z,8.48
2022-09-18T01:16:13.637Z,8.45
2022-09-18T01:18:51.092Z,8.47
2022-09-18T01:21:33.476Z,8.44
2022-09-18T01:24:34.126Z,8.45
2022-09-18T01:27:07.604Z,8.46
2022-09-18T01:29:37.029Z,8.45
2022-09-18T01:32:09.746Z,8.44
2022-09-18T01:34:46.255Z,8.43
2022-09-18T01:37:30.951Z,8.41
2022-09-18T01:40:12.731Z,8.45
2022-09-18T01:42:41.080Z,8.45
2022-09-18T01:45:16.451Z,8.43
2022-09-18T01:47:56.073Z,8.45
2022-09-18T01:50:27.869Z,8.48
2022-09-18T01:53:00.660Z,8.43
2022-09-18T01:55:30.716Z,8.47
2022-09-18T01:58:07.157Z,8.47
2022-09-18T02:00:37.372Z,8.47
2022-09-18T02:03:15.692Z,8.46
2022-09-18T02:05:48.100Z,8.41
2022-09-18T02:08:26.231Z,8.39
2022-09-18T02:11:02.793Z,8.38
2022-09-18T02:13:37.026Z,8.34
2022-09-18T02:16:11.691Z,8.32
2022-09-18T02:18:45.081Z,8.29
2022-09-18T02:21:16.737Z,8.27
2022-09-18T02:23:43.121Z,8.26
2022-09-18T02:26:12.880Z,8.24
2022-09-18T02:28:41.026Z,8.23
2022-09-18T02:31:07.704Z,8.25
2022-09-18T02:33:38.439Z,8.24
2022-09-18T02:36:05.970Z,8.21
2022-09-18T02:38:59.491Z,8.22
2022-09-18T02:41:44.380Z,8.20
2022-09-18T02:44:20.840Z,8.16
2022-09-18T02:46:53.890Z,8.13
2022-09-18T02:49:57.017Z,8.11
2022-09-18T02:52:42.499Z,8.08
2022-09-18T02:55:18.203Z,8.01
2022-09-18T02:58:31.266Z,8.02
2022-09-18T03:01:02.647Z,7.99
2022-09-18T03:03:32.490Z,7.97
2022-09-18T03:06:06.698Z,7.97
2022-09-18T03:08:35.521Z,7.96
2022-09-18T03:11:03.826Z,7.94
2022-09-18T03:13:30.313Z,7.93
2022-09-18T03:15:56.876Z,7.92
2022-09-18T03:18:25.219Z,7.91
2022-09-18T03:20:54.355Z,7.92
2022-09-18T03:23:20.745Z,7.89
2022-09-18T03:25:50.263Z,7.86
2022-09-18T03:28:17.966Z,7.87
2022-09-18T03:30:45.366Z,7.89
2022-09-18T03:33:13.632Z,7.89
2022-09-18T03:35:43.630Z,7.92
2022-09-18T03:38:10.270Z,7.91
2022-09-18T03:40:36.936Z,7.89
2022-09-18T03:43:05.564Z,7.88
2022-09-18T03:45:32.082Z,7.87
2022-09-18T03:47:59.856Z,7.84
2022-09-18T03:50:26.340Z,7.85
2022-09-18T03:52:52.826Z,7.84
2022-09-18T03:55:33.843Z,7.84
2022-09-18T03:58:18.806Z,7.84
2022-09-18T04:01:04.321Z,7.85
2022-09-18T04:03:42.416Z,7.89
2022-09-18T04:06:31.368Z,7.92
2022-09-18T04:09:21.318Z,7.85
2022-09-18T04:11:50.516Z,7.93
2022-09-18T04:14:17.939Z,7.95
2022-09-18T04:16:45.211Z,7.99
2022-09-18T04:19:11.597Z,7.95
2022-09-18T04:21:38.972Z,8.05
2022-09-18T04:24:06.245Z,8.08
2022-09-18T04:26:36.664Z,8.11
2022-09-18T04:29:04.449Z,8.11
2022-09-18T04:31:31.607Z,8.07
2022-09-18T04:34:03.104Z,8.12
2022-09-18T04:36:29.465Z,8.13
2022-09-18T04:38:55.847Z,8.16
2022-09-18T04:41:22.250Z,8.17
2022-09-18T04:43:48.649Z,8.16
2022-09-18T04:46:15.700Z,8.15
2022-09-18T04:48:47.931Z,8.16
2022-09-18T04:51:15.542Z,8.14
2022-09-18T04:53:47.778Z,8.12
2022-09-18T04:56:14.614Z,8.16
2022-09-18T04:58:45.213Z,8.15
2022-09-18T05:01:12.384Z,8.16
2022-09-18T05:03:38.787Z,8.18
2022-09-18T05:06:06.780Z,8.17
2022-09-18T05:08:34.608Z,8.19
2022-09-18T05:11:02.105Z,8.20
2022-09-18T05:13:30.900Z,8.21
2022-09-18T05:16:03.225Z,8.19
2022-09-18T05:18:30.917Z,8.25
2022-09-18T05:21:05.655Z,8.25
2022-09-18T05:23:34.380Z,8.25
2022-09-18T05:26:04.257Z,8.23
2022-09-18T05:28:31.458Z,8.29
2022-09-18T05:31:00.345Z,8.28
2022-09-18T05:33:32.786Z,8.27
2022-09-18T05:35:59.248Z,8.17
2022-09-18T05:38:26.430Z,8.32
2022-09-18T05:40:53.768Z,8.29
2022-09-18T05:43:20.119Z,8.32
2022-09-18T05:45:48.893Z,8.32
2022-09-18T05:48:20.737Z,8.32
2022-09-18T05:50:48.320Z,8.34
2022-09-18T05:53:18.488Z,8.36
2022-09-18T05:56:05.167Z,8.37
2022-09-18T05:58:31.934Z,8.39
2022-09-18T06:01:01.166Z,8.39
2022-09-18T06:03:38.346Z,8.41
2022-09-18T06:06:04.888Z,8.43
2022-09-18T06:08:31.325Z,8.43
2022-09-18T06:11:01.366Z,8.41
2022-09-18T06:13:30.267Z,8.41
2022-09-18T06:15:57.444Z,8.42
2022-09-18T06:18:38.397Z,8.43
2022-09-18T06:21:05.074Z,8.45
2022-09-18T06:23:31.941Z,8.47
2022-09-18T06:26:09.403Z,8.47
2022-09-18T06:28:39.543Z,8.48
2022-09-18T06:31:06.797Z,8.49
2022-09-18T06:33:53.229Z,8.48
2022-09-18T06:36:20.412Z,8.50
2022-09-18T06:39:00.067Z,8.49
2022-09-18T06:41:26.509Z,8.50
2022-09-18T06:43:54.655Z,8.49
2022-09-18T06:46:26.879Z,8.49
2022-09-18T06:48:54.138Z,8.48
2022-09-18T06:51:20.613Z,8.49
2022-09-18T06:54:08.442Z,8.49
2022-09-18T06:56:35.165Z,8.49
2022-09-18T06:59:01.937Z,8.51
2022-09-18T07:01:29.066Z,8.53
2022-09-18T07:04:06.288Z,8.54
2022-09-18T07:06:39.646Z,8.54
2022-09-18T07:09:06.163Z,8.56
2022-09-18T07:11:52.483Z,8.56
2022-09-18T07:14:21.524Z,8.57
2022-09-18T07:16:52.916Z,8.58
2022-09-18T07:19:19.781Z,8.53
2022-09-18T07:21:46.123Z,8.57
2022-09-18T07:24:12.554Z,8.61
2022-09-18T07:26:39.371Z,8.64
2022-09-18T07:29:10.093Z,8.66
2022-09-18T07:31:36.978Z,8.70
2022-09-18T07:34:09.147Z,8.69
2022-09-18T07:36:35.586Z,8.69
2022-09-18T07:39:02.743Z,8.67
2022-09-18T07:41:38.204Z,8.69
2022-09-18T07:44:05.767Z,8.71
2022-09-18T07:46:32.219Z,8.72
2022-09-18T07:49:02.696Z,8.72
2022-09-18T07:51:29.837Z,8.73
2022-09-18T07:53:58.395Z,8.72
2022-09-18T07:56:46.718Z,8.75
2022-09-18T07:59:19.460Z,8.79
2022-09-18T08:01:51.494Z,8.86
2022-09-18T08:04:18.082Z,8.88
2022-09-18T08:07:03.492Z,8.94
2022-09-18T08:09:51.973Z,8.98
2022-09-18T08:12:44.197Z,9.01
2022-09-18T08:15:30.389Z,8.98
2022-09-18T08:18:29.070Z,9.02
2022-09-18T08:21:10.660Z,8.98
2022-09-18T08:23:46.601Z,8.99
2022-09-18T08:26:16.587Z,9.03
2022-09-18T08:28:47.603Z,9.08
2022-09-18T08:31:14.360Z,9.16
2022-09-18T08:33:40.826Z,9.23
2022-09-18T08:36:09.062Z,9.37
2022-09-18T08:38:37.899Z,9.47
2022-09-18T08:41:30.964Z,9.52
2022-09-18T08:44:12.330Z,9.52
2022-09-18T08:46:45.480Z,9.47
2022-09-18T08:49:37.726Z,9.49
2022-09-18T08:52:17.515Z,9.39
2022-09-18T08:54:59.486Z,9.35
2022-09-18T08:58:01.437Z,9.32
2022-09-18T09:00:48.042Z,9.31
2022-09-18T09:03:51.450Z,9.23
2022-09-18T09:06:46.989Z,9.19
2022-09-18T09:09:30.076Z,9.17
2022-09-18T09:12:16.855Z,9.15
2022-09-18T09:15:04.507Z,9.18
2022-09-18T09:17:41.038Z,9.16
2022-09-18T09:20:21.693Z,9.17
2022-09-18T09:22:51.576Z,9.16
2022-09-18T09:25:29.115Z,9.16
2022-09-18T09:28:25.126Z,9.21
2022-09-18T09:30:56.684Z,9.17
2022-09-18T09:33:52.412Z,9.14
2022-09-18T09:36:40.518Z,9.14
2022-09-18T09:39:32.557Z,9.10
2022-09-18T09:42:11.529Z,9.11
2022-09-18T09:44:53.978Z,9.14
2022-09-18T09:47:45.481Z,9.10
2022-09-18T09:50:19.847Z,9.18
2022-09-18T09:52:47.453Z,9.19
2022-09-18T09:55:27.616Z,9.26
2022-09-18T09:58:23.945Z,9.36
2022-09-18T10:01:04.047Z,9.36
2022-09-18T10:03:37.253Z,9.42
2022-09-18T10:06:24.172Z,9.50
2022-09-18T10:09:00.326Z,9.62
2022-09-18T10:11:27.001Z,9.67
2022-09-18T10:14:13.173Z,9.78
2022-09-18T10:16:45.803Z,9.81
2022-09-18T10:19:17.687Z,9.84
2022-09-18T10:21:45.404Z,9.92
2022-09-18T10:24:30.945Z,10.05
2022-09-18T10:27:07.832Z,10.18
2022-09-18T10:29:36.102Z,10.31
2022-09-18T10:32:07.016Z,10.46
2022-09-18T10:34:49.450Z,10.54
2022-09-18T10:37:45.660Z,10.63
2022-09-18T10:40:33.927Z,10.62
2022-09-18T10:43:04.861Z,10.57
2022-09-18T10:45:37.925Z,10.66
2022-09-18T10:48:28.017Z,10.72
2022-09-18T10:50:56.412Z,10.76
2022-09-18T10:53:31.576Z,10.81
2022-09-18T10:56:16.950Z,10.84
2022-09-18T10:58:44.884Z,10.90
2022-09-18T11:01:12.418Z,10.97
2022-09-18T11:03:49.712Z,10.92
2022-09-18T11:06:26.507Z,10.96
2022-09-18T11:08:59.118Z,11.12
2022-09-18T11:11:35.608Z,11.23
2022-09-18T11:14:30.109Z,11.37
2022-09-18T11:17:29.897Z,11.32
2022-09-18T11:19:59.261Z,11.24
2022-09-18T11:22:39.679Z,11.24
2022-09-18T11:25:13.682Z,11.25
2022-09-18T11:27:47.473Z,11.27
2022-09-18T11:30:35.972Z,11.25
2022-09-18T11:33:26.209Z,11.24
2022-09-18T11:36:07.563Z,11.18
2022-09-18T11:38:44.977Z,11.21
2022-09-18T11:41:20.530Z,11.27
2022-09-18T11:44:01.729Z,11.38
2022-09-18T11:47:04.346Z,11.52
2022-09-18T11:49:37.994Z,11.59
2022-09-18T11:52:18.351Z,11.65
2022-09-18T11:55:03.116Z,11.84
2022-09-18T11:57:38.861Z,11.97
2022-09-18T12:00:18.762Z,12.09
2022-09-18T12:02:58.463Z,12.39
2022-09-18T12:05:40.830Z,12.67
2022-09-18T12:08:23.733Z,12.93
2022-09-18T12:11:37.109Z,13.16
2022-09-18T12:14:13.605Z,13.05
2022-09-18T12:17:10.141Z,12.98
2022-09-18T12:19:47.984Z,13.12
2022-09-18T12:22:29.629Z,13.23
2022-09-18T12:24:56.017Z,13.33
2022-09-18T12:27:56.725Z,13.18
2022-09-18T12:30:42.664Z,13.08
2022-09-18T12:33:21.217Z,12.90
2022-09-18T12:36:18.264Z,12.82
2022-09-18T12:38:57.848Z,12.76
2022-09-18T12:41:51.395Z,12.71
2022-09-18T12:44:55.600Z,12.70
2022-09-18T12:47:41.032Z,12.56
2022-09-18T12:50:31.711Z,12.48
2022-09-18T12:53:13.774Z,12.34
2022-09-18T12:55:49.265Z,12.17
2022-09-18T12:58:31.773Z,12.11
2022-09-18T13:01:03.373Z,12.03
2022-09-18T13:03:35.994Z,11.99
2022-09-18T13:06:13.707Z,12.01
2022-09-18T13:08:51.497Z,12.03
2022-09-18T13:11:32.924Z,12.19
2022-09-18T13:14:01.764Z,12.23
2022-09-18T13:16:35.216Z,12.16
2022-09-18T13:19:13.427Z,12.13
2022-09-18T13:21:44.153Z,12.14
2022-09-18T13:24:15.874Z,12.31
2022-09-18T13:26:45.164Z,12.53
2022-09-18T13:29:46.750Z,12.62
2022-09-18T13:32:14.687Z,12.66
2022-09-18T13:34:50.113Z,12.61
2022-09-18T13:37:19.843Z,12.53
2022-09-18T13:40:09.380Z,12.56
2022-09-18T13:42:40.566Z,12.47
2022-09-18T13:45:18.595Z,12.45
2022-09-18T13:48:02.732Z,12.44
2022-09-18T13:50:30.337Z,12.46
2022-09-18T13:52:58.687Z,12.49
2022-09-18T13:55:27.769Z,12.54
2022-09-18T13:58:31.315Z,12.57
2022-09-18T14:01:00.158Z,12.52
2022-09-18T14:03:27.891Z,12.57
2022-09-18T14:05:55.011Z,12.56
2022-09-18T14:08:22.177Z,12.53
2022-09-18T14:11:11.367Z,12.52
2022-09-18T14:13:51.587Z,12.46
2022-09-18T14:16:18.658Z,12.41
2022-09-18T14:18:46.548Z,12.33
2022-09-18T14:21:18.814Z,12.20
2022-09-18T14:23:48.285Z,12.10
2022-09-18T14:26:37.218Z,12.04
2022-09-18T14:29:14.818Z,11.97
2022-09-18T14:31:41.203Z,11.92
2022-09-18T14:34:25.121Z,11.84
2022-09-18T14:36:55.125Z,11.79
2022-09-18T14:39:37.804Z,11.80
2022-09-18T14:42:11.356Z,11.79
2022-09-18T14:44:38.203Z,11.79
2022-09-18T14:47:06.444Z,11.80
2022-09-18T14:49:44.554Z,11.82
2022-09-18T14:52:25.633Z,11.87
2022-09-18T14:54:57.125Z,11.88
2022-09-18T14:57:28.827Z,11.88
2022-09-18T14:59:57.461Z,11.82
2022-09-18T15:02:42.074Z,11.82
2022-09-18T15:05:12.385Z,11.76
2022-09-18T15:07:39.943Z,11.69
2022-09-18T15:10:08.493Z,11.66
2022-09-18T15:12:36.431Z,11.64
2022-09-18T15:15:30.040Z,11.60
2022-09-18T15:17:57.044Z,11.59
2022-09-18T15:20:24.763Z,11.58
2022-09-18T15:22:53.850Z,11.58
2022-09-18T15:25:32.392Z,11.57
2022-09-18T15:28:03.889Z,11.57
2022-09-18T15:30:30.581Z,11.53
2022-09-18T15:33:04.354Z,11.58
2022-09-18T15:35:36.394Z,11.58
2022-09-18T15:38:06.125Z,11.60
2022-09-18T15:40:36.051Z,11.58
2022-09-18T15:43:05.127Z,11.59
2022-09-18T15:45:34.505Z,11.55
2022-09-18T15:48:22.082Z,11.52
2022-09-18T15:50:48.771Z,11.47
2022-09-18T15:53:22.016Z,11.47
2022-09-18T15:55:54.306Z,11.44
2022-09-18T15:58:33.196Z,11.40
2022-09-18T16:01:02.341Z,11.38
2022-09-18T16:03:31.418Z,11.36
2022-09-18T16:06:04.777Z,11.34
2022-09-18T16:08:37.461Z,11.32
2022-09-18T16:11:05.171Z,11.30
2022-09-18T16:13:38.743Z,11.26
2022-09-18T16:16:08.247Z,11.27
2022-09-18T16:18:47.383Z,11.24
2022-09-18T16:21:13.988Z,11.20
2022-09-18T16:23:50.597Z,11.19
2022-09-18T16:26:19.735Z,11.15
2022-09-18T16:28:51.948Z,11.15
2022-09-18T16:31:21.241Z,11.13
2022-09-18T16:34:01.310Z,11.14
2022-09-18T16:36:34.865Z,11.10
2022-09-18T16:39:07.783Z,11.08
2022-09-18T16:41:35.453Z,11.05
2022-09-18T16:44:04.247Z,11.03
2022-09-18T16:46:42.126Z,11.02
2022-09-18T16:49:11.370Z,10.99
2022-09-18T16:51:38.160Z,11.00
2022-09-18T16:54:04.931Z,11.00
2022-09-18T16:56:48.637Z,10.99
2022-09-18T16:59:15.841Z,10.94
2022-09-18T17:02:00.334Z,10.90
2022-09-18T17:04:29.133Z,10.93
2022-09-18T17:06:55.483Z,10.93
2022-09-18T17:09:23.774Z,10.91
2022-09-18T17:11:50.999Z,10.89
2022-09-18T17:14:17.428Z,10.89
2022-09-18T17:16:45.096Z,10.88
2022-09-18T17:19:12.177Z,10.89
2022-09-18T17:21:39.442Z,10.83
2022-09-18T17:24:06.366Z,10.86
2022-09-18T17:26:35.524Z,10.86
2022-09-18T17:29:02.008Z,10.85
2022-09-18T17:31:28.706Z,10.86
2022-09-18T17:33:56.044Z,10.86
2022-09-18T17:36:22.639Z,10.85
2022-09-18T17:38:49.283Z,10.83
2022-09-18T17:41:18.839Z,10.83
2022-09-18T17:43:50.085Z,10.84
2022-09-18T17:46:16.458Z,10.83
2022-09-18T17:48:42.966Z,10.80
2022-09-18T17:51:12.682Z,10.79
2022-09-18T17:53:40.325Z,10.78
2022-09-18T17:56:09.648Z,10.80
2022-09-18T17:58:40.030Z,10.82
2022-09-18T18:01:12.711Z,10.80
2022-09-18T18:03:39.563Z,10.82
2022-09-18T18:06:06.174Z,10.81
2022-09-18T18:08:32.774Z,10.80
2022-09-18T18:11:04.961Z,10.81
2022-09-18T18:13:31.455Z,10.74
2022-09-18T18:16:11.451Z,10.78
2022-09-18T18:18:38.417Z,10.77
2022-09-18T18:21:06.235Z,10.75
2022-09-18T18:23:33.525Z,10.76
2022-09-18T18:26:02.121Z,10.76
2022-09-18T18:28:31.683Z,10.70
2022-09-18T18:31:06.078Z,10.68
2022-09-18T18:33:34.229Z,10.74
2022-09-18T18:36:20.470Z,10.74
2022-09-18T18:38:49.248Z,10.72
2022-09-18T18:41:17.014Z,10.68
2022-09-18T18:43:44.588Z,10.68
2022-09-18T18:46:15.385Z,10.65
2022-09-18T18:48:43.719Z,10.53
2022-09-18T18:51:15.791Z,10.66
2022-09-18T18:53:42.896Z,10.64
2022-09-18T18:56:13.952Z,10.68
2022-09-18T18:58:40.761Z,10.68
2022-09-18T19:01:09.160Z,10.69
2022-09-18T19:03:41.841Z,10.78
2022-09-18T19:06:08.903Z,10.75
2022-09-18T19:08:38.407Z,10.83
2022-09-18T19:11:06.642Z,10.85
2022-09-18T19:13:41.214Z,10.90
2022-09-18T19:16:08.042Z,10.89
2022-09-18T19:18:34.903Z,10.86
2022-09-18T19:21:01.532Z,10.86
2022-09-18T19:23:28.264Z,10.85
2022-09-18T19:25:59.875Z,10.86
2022-09-18T19:28:30.221Z,10.86
2022-09-18T19:31:04.123Z,10.82
2022-09-18T19:33:32.273Z,10.86
2022-09-18T19:36:06.400Z,10.83
2022-09-18T19:38:36.762Z,10.82
2022-09-18T19:41:13.608Z,10.81
2022-09-18T19:43:40.069Z,10.76
2022-09-18T19:46:11.466Z,10.80
2022-09-18T19:48:37.924Z,10.81
2022-09-18T19:51:04.553Z,10.80
2022-09-18T19:53:31.018Z,10.82
2022-09-18T19:55:57.808Z,10.84
2022-09-18T19:58:24.141Z,10.88
2022-09-18T20:00:50.791Z,10.89
2022-09-18T20:03:17.437Z,10.91
2022-09-18T20:05:44.185Z,10.92
2022-09-18T20:08:11.107Z,10.91
2022-09-18T20:10:39.049Z,10.96
2022-09-18T20:13:06.123Z,10.99
2022-09-18T20:15:32.523Z,10.99
2022-09-18T20:17:59.480Z,10.98
2022-09-18T20:20:26.517Z,10.97
2022-09-18T20:22:54.760Z,10.92
2022-09-18T20:25:22.032Z,10.86
2022-09-18T20:27:48.622Z,10.83
2022-09-18T20:30:15.439Z,10.76
2022-09-18T20:32:41.811Z,10.65
2022-09-18T20:35:08.594Z,10.60
2022-09-18T20:37:34.980Z,10.50
2022-09-18T20:40:06.731Z,10.44
2022-09-18T20:42:34.625Z,10.37
2022-09-18T20:45:04.491Z,10.32
2022-09-18T20:47:36.331Z,10.22
2022-09-18T20:50:11.766Z,10.26
2022-09-18T20:52:41.808Z,10.23
2022-09-18T20:55:14.122Z,10.20
2022-09-18T20:57:40.921Z,10.16
2022-09-18T21:00:10.009Z,10.12
2022-09-18T21:02:36.721Z,10.06
2022-09-18T21:05:10.888Z,10.01
2022-09-18T21:07:37.397Z,9.94
2022-09-18T21:10:04.115Z,9.81
2022-09-18T21:12:35.051Z,9.76
2022-09-18T21:15:02.170Z,9.70
2022-09-18T21:17:29.636Z,9.64
2022-09-18T21:19:55.973Z,9.53
2022-09-18T21:22:22.312Z,9.44
2022-09-18T21:24:48.665Z,9.41
2022-09-18T21:27:15.030Z,9.36
2022-09-18T21:29:41.390Z,9.28
2022-09-18T21:32:08.219Z,9.25
2022-09-18T21:34:34.852Z,9.20
2022-09-18T21:37:03.625Z,9.18
2022-09-18T21:39:31.371Z,9.13
2022-09-18T21:41:59.374Z,9.11
2022-09-18T21:44:27.981Z,9.00
2022-09-18T21:46:59.984Z,9.02
2022-09-18T21:49:27.617Z,8.99
2022-09-18T21:51:55.939Z,8.93
2022-09-18T21:54:23.660Z,8.93
2022-09-18T21:56:51.689Z,8.89
2022-09-18T21:59:20.162Z,8.88
2022-09-18T22:01:48.146Z,8.84
2022-09-18T22:04:14.669Z,8.82
2022-09-18T22:06:45.624Z,8.79
2022-09-18T22:09:15.244Z,8.77
2022-09-18T22:11:43.092Z,8.74
2022-09-18T22:14:12.672Z,8.73
2022-09-18T22:16:39.905Z,8.74
2022-09-18T22:19:08.269Z,8.71
2022-09-18T22:21:37.426Z,8.73
2022-09-18T22:24:08.644Z,8.72
2022-09-18T22:26:37.567Z,8.72
2022-09-18T22:29:07.359Z,8.71
2022-09-18T22:31:35.939Z,8.66
2022-09-18T22:34:02.991Z,8.74
2022-09-18T22:36:29.611Z,8.73
2022-09-18T22:38:56.514Z,8.75
2022-09-18T22:41:22.976Z,8.76
2022-09-18T22:43:54.436Z,8.79
2022-09-18T22:46:21.535Z,8.76
2022-09-18T22:48:48.373Z,8.75
2022-09-18T22:51:20.507Z,8.72
2022-09-18T22:53:50.081Z,8.73
2022-09-18T22:56:18.538Z,8.73
2022-09-18T22:58:45.404Z,8.71
2022-09-18T23:01:31.854Z,8.73
2022-09-18T23:03:59.441Z,8.70
2022-09-18T23:06:27.061Z,8.70
2022-09-18T23:08:56.131Z,8.72
2022-09-18T23:11:25.417Z,8.73
2022-09-18T23:13:57.266Z,8.71
2022-09-18T23:16:26.859Z,8.72
2022-09-18T23:18:58.017Z,8.68
2022-09-18T23:21:29.050Z,8.67
2022-09-18T23:23:56.087Z,8.63
2022-09-18T23:26:28.458Z,8.66
2022-09-18T23:28:57.620Z,8.67
2022-09-18T23:31:30.241Z,8.67
2022-09-18T23:34:02.437Z,8.65
2022-09-18T23:36:34.794Z,8.68
2022-09-18T23:39:12.237Z,8.66
2022-09-18T23:41:39.078Z,8.71
2022-09-18T23:44:08.206Z,8.70
2022-09-18T23:46:35.278Z,8.70
2022-09-18T23:49:02.061Z,8.73
2022-09-18T23:51:31.657Z,8.69
2022-09-18T23:54:00.120Z,8.67
2022-09-18T23:56:29.147Z,8.63
2022-09-18T23:58:58.164Z,8.63
